sensor_id;sensor_type;location;lat;lon;timestamp;pressure;altitude;pressure_sealevel;temperature;humidity
21956;BME280;11142;49.930;8.606;2023-08-12T06:57:03;100216.69;;;31.20;100.00
21956;BME280;11142;49.930;8.606;2023-08-12T06:59:31;100219.81;;;32.12;100.00
21956;BME280;11142;49.930;8.606;2023-08-12T07:01:59;100224.94;;;33.44;100.00
21956;BME280;11142;49.930;8.606;2023-08-12T07:19:00;100217.56;;;29.80;100.00
21956;BME280;11142;49.930;8.606;2023-08-12T07:21:28;100210.72;;;27.67;100.00
21956;BME280;11142;49.930;8.606;2023-08-12T07:23:56;100209.81;;;27.34;100.00
21956;BME280;11142;49.930;8.606;2023-08-12T07:26:30;100214.00;;;27.43;100.00
21956;BME280;11142;49.930;8.606;2023-08-12T07:28:58;100218.22;;;27.37;100.00
21956;BME280;11142;49.930;8.606;2023-08-12T07:31:26;100229.81;;;28.10;100.00
21956;BME280;11142;49.930;8.606;2023-08-12T07:33:54;100222.41;;;26.86;100.00
21956;BME280;11142;49.930;8.606;2023-08-12T07:36:24;100209.31;;;26.50;100.00
21956;BME280;11142;49.930;8.606;2023-08-12T07:38:51;100211.25;;;26.69;100.00
21956;BME280;11142;49.930;8.606;2023-08-12T07:41:19;100209.47;;;26.14;100.00
21956;BME280;11142;49.930;8.606;2023-08-12T07:43:47;100195.72;;;26.79;100.00
21956;BME280;11142;49.930;8.606;2023-08-12T07:46:15;100201.09;;;26.86;100.00
21956;BME280;11142;49.930;8.606;2023-08-12T07:48:43;100218.31;;;26.90;100.00
21956;BME280;11142;49.930;8.606;2023-08-12T07:51:11;100210.44;;;25.79;100.00
21956;BME280;11142;49.930;8.606;2023-08-12T07:53:41;100196.63;;;25.69;100.00
21956;BME280;11142;49.930;8.606;2023-08-12T08:01:53;100190.03;;;25.01;100.00
21956;BME280;11142;49.930;8.606;2023-08-12T08:04:21;100176.00;;;24.27;100.00
21956;BME280;11142;49.930;8.606;2023-08-12T08:06:49;100179.03;;;24.24;100.00
21956;BME280;11142;49.930;8.606;2023-08-12T08:09:18;100182.94;;;24.58;100.00
21956;BME280;11142;49.930;8.606;2023-08-12T08:11:46;100169.69;;;24.14;100.00
21956;BME280;11142;49.930;8.606;2023-08-12T08:14:14;100184.41;;;25.11;100.00
21956;BME280;11142;49.930;8.606;2023-08-12T08:16:42;100191.13;;;25.28;100.00
21956;BME280;11142;49.930;8.606;2023-08-12T08:19:10;100193.00;;;25.13;100.00
21956;BME280;11142;49.930;8.606;2023-08-12T08:22:12;100192.75;;;24.57;100.00
21956;BME280;11142;49.930;8.606;2023-08-12T08:28:47;100200.88;;;29.22;100.00
21956;BME280;11142;49.930;8.606;2023-08-12T08:31:53;100218.72;;;28.13;100.00
21956;BME280;11142;49.930;8.606;2023-08-12T08:34:48;100208.66;;;27.76;100.00
21956;BME280;11142;49.930;8.606;2023-08-12T08:38:10;100215.53;;;27.24;100.00
21956;BME280;11142;49.930;8.606;2023-08-12T08:41:25;100206.31;;;28.52;100.00
21956;BME280;11142;49.930;8.606;2023-08-12T08:54:52;100224.25;;;30.75;100.00
21956;BME280;11142;49.930;8.606;2023-08-12T08:58:19;100229.03;;;32.16;100.00
21956;BME280;11142;49.930;8.606;2023-08-12T09:01:29;100236.31;;;31.74;100.00
21956;BME280;11142;49.930;8.606;2023-08-12T09:04:26;100227.78;;;32.70;100.00
21956;BME280;11142;49.930;8.606;2023-08-12T09:07:27;100208.19;;;33.26;98.21
21956;BME280;11142;49.930;8.606;2023-08-12T09:10:52;100204.91;;;33.69;99.19
21956;BME280;11142;49.930;8.606;2023-08-12T09:14:06;100210.97;;;35.17;79.38
21956;BME280;11142;49.930;8.606;2023-08-12T09:17:05;100218.78;;;34.10;83.20
21956;BME280;11142;49.930;8.606;2023-08-12T09:20:14;100211.47;;;33.44;91.19
21956;BME280;11142;49.930;8.606;2023-08-12T09:22:58;100212.94;;;32.79;94.32
21956;BME280;11142;49.930;8.606;2023-08-12T09:25:41;100221.50;;;33.04;96.31
21956;BME280;11142;49.930;8.606;2023-08-12T09:28:30;100227.44;;;33.79;96.65
21956;BME280;11142;49.930;8.606;2023-08-12T09:32:13;100223.38;;;34.32;85.71
21956;BME280;11142;49.930;8.606;2023-08-12T09:35:15;100217.53;;;34.78;81.42
21956;BME280;11142;49.930;8.606;2023-08-12T09:38:37;100212.53;;;32.35;98.50
21956;BME280;11142;49.930;8.606;2023-08-12T09:41:34;100204.31;;;32.65;94.57
21956;BME280;11142;49.930;8.606;2023-08-12T09:48:14;100202.41;;;33.05;95.91
21956;BME280;11142;49.930;8.606;2023-08-12T09:51:33;100185.81;;;30.09;100.00
21956;BME280;11142;49.930;8.606;2023-08-12T09:54:18;100188.13;;;30.78;100.00
21956;BME280;11142;49.930;8.606;2023-08-12T09:57:14;100187.06;;;32.26;100.00
21956;BME280;11142;49.930;8.606;2023-08-12T09:59:47;100188.88;;;32.09;100.00
21956;BME280;11142;49.930;8.606;2023-08-12T10:02:21;100191.91;;;33.04;94.23
21956;BME280;11142;49.930;8.606;2023-08-12T10:04:57;100203.34;;;34.06;91.27
21956;BME280;11142;49.930;8.606;2023-08-12T10:07:54;100215.72;;;34.84;82.98
21956;BME280;11142;49.930;8.606;2023-08-12T10:10:42;100227.56;;;31.78;100.00
21956;BME280;11142;49.930;8.606;2023-08-12T10:13:40;100237.31;;;28.59;100.00
21956;BME280;11142;49.930;8.606;2023-08-12T10:16:18;100247.00;;;26.54;100.00
21956;BME280;11142;49.930;8.606;2023-08-12T10:18:53;100254.38;;;26.24;100.00
21956;BME280;11142;49.930;8.606;2023-08-12T10:21:40;100270.94;;;25.98;100.00
21956;BME280;11142;49.930;8.606;2023-08-12T10:24:14;100262.03;;;24.48;100.00
21956;BME280;11142;49.930;8.606;2023-08-12T10:26:45;100228.50;;;23.04;100.00
21956;BME280;11142;49.930;8.606;2023-08-12T10:29:15;100228.72;;;22.47;100.00
21956;BME280;11142;49.930;8.606;2023-08-12T10:31:44;100213.19;;;22.44;100.00
21956;BME280;11142;49.930;8.606;2023-08-12T10:34:18;100213.53;;;22.33;100.00
21956;BME280;11142;49.930;8.606;2023-08-12T10:36:48;100214.00;;;22.45;100.00
21956;BME280;11142;49.930;8.606;2023-08-12T10:39:27;100222.38;;;22.56;100.00
21956;BME280;11142;49.930;8.606;2023-08-12T10:41:56;100191.09;;;22.68;100.00
21956;BME280;11142;49.930;8.606;2023-08-12T10:44:26;100171.44;;;22.70;100.00
21956;BME280;11142;49.930;8.606;2023-08-12T10:46:54;100160.91;;;22.46;100.00
21956;BME280;11142;49.930;8.606;2023-08-12T10:49:25;100156.91;;;22.19;100.00
21956;BME280;11142;49.930;8.606;2023-08-12T10:51:54;100162.88;;;22.52;100.00
21956;BME280;11142;49.930;8.606;2023-08-12T10:54:25;100169.31;;;23.19;100.00
21956;BME280;11142;49.930;8.606;2023-08-12T10:57:05;100176.41;;;23.50;100.00
21956;BME280;11142;49.930;8.606;2023-08-12T10:59:51;100178.00;;;23.59;100.00
21956;BME280;11142;49.930;8.606;2023-08-12T11:02:27;100164.16;;;23.49;100.00
21956;BME280;11142;49.930;8.606;2023-08-12T11:05:00;100162.22;;;23.65;100.00
21956;BME280;11142;49.930;8.606;2023-08-12T11:07:34;100149.31;;;23.62;100.00
21956;BME280;11142;49.930;8.606;2023-08-12T11:10:09;100151.16;;;23.76;100.00
21956;BME280;11142;49.930;8.606;2023-08-12T11:12:55;100134.22;;;23.63;100.00
21956;BME280;11142;49.930;8.606;2023-08-12T11:15:31;100136.72;;;23.42;100.00
21956;BME280;11142;49.930;8.606;2023-08-12T11:18:21;100155.84;;;23.52;100.00
21956;BME280;11142;49.930;8.606;2023-08-12T11:21:00;100144.66;;;23.64;100.00
21956;BME280;11142;49.930;8.606;2023-08-12T11:23:52;100137.69;;;23.63;100.00
21956;BME280;11142;49.930;8.606;2023-08-12T11:26:38;100134.09;;;23.56;100.00
21956;BME280;11142;49.930;8.606;2023-08-12T11:29:36;100136.09;;;23.40;100.00
21956;BME280;11142;49.930;8.606;2023-08-12T11:33:01;100127.06;;;23.49;100.00
21956;BME280;11142;49.930;8.606;2023-08-12T11:35:50;100122.97;;;23.61;100.00
21956;BME280;11142;49.930;8.606;2023-08-12T11:38:23;100125.34;;;23.56;100.00
21956;BME280;11142;49.930;8.606;2023-08-12T11:41:04;100129.19;;;23.31;100.00
21956;BME280;11142;49.930;8.606;2023-08-12T11:43:34;100112.00;;;23.04;100.00
21956;BME280;11142;49.930;8.606;2023-08-12T11:46:05;100116.22;;;22.90;100.00
21956;BME280;11142;49.930;8.606;2023-08-12T11:49:10;100097.94;;;22.81;100.00
21956;BME280;11142;49.930;8.606;2023-08-12T11:51:55;100098.50;;;22.68;100.00
21956;BME280;11142;49.930;8.606;2023-08-12T11:54:53;100123.34;;;22.59;100.00
21956;BME280;11142;49.930;8.606;2023-08-12T11:58:07;100122.44;;;22.36;100.00
21956;BME280;11142;49.930;8.606;2023-08-12T12:01:17;100126.66;;;22.22;100.00
21956;BME280;11142;49.930;8.606;2023-08-12T12:44:44;100179.72;;;25.76;100.00
21956;BME280;11142;49.930;8.606;2023-08-12T12:47:12;100199.81;;;27.95;100.00
21956;BME280;11142;49.930;8.606;2023-08-12T13:04:52;100224.47;;;36.60;76.34
21956;BME280;11142;49.930;8.606;2023-08-12T13:07:56;100232.56;;;39.36;54.64
21956;BME280;11142;49.930;8.606;2023-08-12T13:10:52;100230.09;;;35.43;86.14
21956;BME280;11142;49.930;8.606;2023-08-12T13:13:23;100223.09;;;34.28;99.98
21956;BME280;11142;49.930;8.606;2023-08-12T13:15:53;100224.47;;;33.97;95.07
21956;BME280;11142;49.930;8.606;2023-08-12T13:18:29;100222.38;;;34.38;100.00
21956;BME280;11142;49.930;8.606;2023-08-12T13:21:01;100229.69;;;36.77;79.10
21956;BME280;11142;49.930;8.606;2023-08-12T13:23:47;100228.13;;;39.84;55.05
21956;BME280;11142;49.930;8.606;2023-08-12T13:26:15;100223.28;;;38.34;57.92
21956;BME280;11142;49.930;8.606;2023-08-12T13:28:49;100222.53;;;39.99;53.22
21956;BME280;11142;49.930;8.606;2023-08-12T13:31:20;100219.50;;;40.77;52.84
21956;BME280;11142;49.930;8.606;2023-08-12T13:33:56;100224.50;;;40.89;50.62
21956;BME280;11142;49.930;8.606;2023-08-12T13:36:30;100219.84;;;41.26;49.36
21956;BME280;11142;49.930;8.606;2023-08-12T13:39:19;100219.59;;;41.79;50.76
21956;BME280;11142;49.930;8.606;2023-08-12T13:42:09;100212.44;;;40.28;52.33
21956;BME280;11142;49.930;8.606;2023-08-12T13:44:59;100221.19;;;38.85;57.79
21956;BME280;11142;49.930;8.606;2023-08-12T13:47:35;100212.53;;;37.58;65.06
21956;BME280;11142;49.930;8.606;2023-08-12T13:50:09;100207.25;;;36.81;71.27
21956;BME280;11142;49.930;8.606;2023-08-12T13:53:14;100203.53;;;39.70;59.68
21956;BME280;11142;49.930;8.606;2023-08-12T13:56:18;100216.22;;;43.05;44.64
21956;BME280;11142;49.930;8.606;2023-08-12T13:59:03;100209.94;;;42.55;44.07
21956;BME280;11142;49.930;8.606;2023-08-12T14:01:46;100205.88;;;39.48;54.95
21956;BME280;11142;49.930;8.606;2023-08-12T14:04:19;100208.47;;;38.75;59.63
21956;BME280;11142;49.930;8.606;2023-08-12T14:07:03;100207.84;;;38.29;59.26
21956;BME280;11142;49.930;8.606;2023-08-12T14:09:34;100199.50;;;38.11;63.02
21956;BME280;11142;49.930;8.606;2023-08-12T14:12:09;100196.56;;;38.66;61.67
21956;BME280;11142;49.930;8.606;2023-08-12T14:14:46;100200.59;;;41.42;48.03
21956;BME280;11142;49.930;8.606;2023-08-12T14:17:24;100198.31;;;42.08;44.11
21956;BME280;11142;49.930;8.606;2023-08-12T14:20:13;100192.53;;;40.33;51.69
21956;BME280;11142;49.930;8.606;2023-08-12T14:22:57;100178.41;;;39.11;58.08
21956;BME280;11142;49.930;8.606;2023-08-12T14:25:28;100171.22;;;41.98;45.89
21956;BME280;11142;49.930;8.606;2023-08-12T14:28:13;100176.84;;;44.12;38.89
21956;BME280;11142;49.930;8.606;2023-08-12T14:30:46;100179.88;;;45.70;35.15
21956;BME280;11142;49.930;8.606;2023-08-12T14:33:17;100167.81;;;43.41;37.41
21956;BME280;11142;49.930;8.606;2023-08-12T14:36:15;100152.31;;;39.15;50.47
21956;BME280;11142;49.930;8.606;2023-08-12T14:38:46;100140.16;;;36.93;65.89
21956;BME280;11142;49.930;8.606;2023-08-12T14:41:31;100126.09;;;35.35;80.07
21956;BME280;11142;49.930;8.606;2023-08-12T14:44:08;100117.06;;;35.19;81.71
21956;BME280;11142;49.930;8.606;2023-08-12T14:46:36;100112.00;;;35.60;79.09
21956;BME280;11142;49.930;8.606;2023-08-12T14:49:20;100107.41;;;37.70;66.34
21956;BME280;11142;49.930;8.606;2023-08-12T14:52:05;100120.47;;;40.49;51.74
21956;BME280;11142;49.930;8.606;2023-08-12T14:54:36;100121.69;;;41.64;46.69
21956;BME280;11142;49.930;8.606;2023-08-12T15:08:10;100114.69;;;36.69;71.92
21956;BME280;11142;49.930;8.606;2023-08-12T15:11:39;100115.84;;;36.21;72.61
21956;BME280;11142;49.930;8.606;2023-08-12T15:14:40;100121.75;;;35.34;81.92
21956;BME280;11142;49.930;8.606;2023-08-12T15:18:04;100123.38;;;33.73;95.67
21956;BME280;11142;49.930;8.606;2023-08-12T15:20:48;100118.22;;;32.77;100.00
21956;BME280;11142;49.930;8.606;2023-08-12T15:23:59;100112.44;;;31.35;100.00
21956;BME280;11142;49.930;8.606;2023-08-12T15:27:09;100113.44;;;29.97;100.00
21956;BME280;11142;49.930;8.606;2023-08-12T15:30:04;100109.22;;;30.08;100.00
21956;BME280;11142;49.930;8.606;2023-08-12T15:33:06;100125.38;;;30.85;100.00
21956;BME280;11142;49.930;8.606;2023-08-12T15:36:09;100133.47;;;31.85;100.00
21956;BME280;11142;49.930;8.606;2023-08-12T15:38:40;100143.41;;;32.71;100.00
21956;BME280;11142;49.930;8.606;2023-08-12T15:41:48;100138.75;;;32.94;100.00
21956;BME280;11142;49.930;8.606;2023-08-12T15:44:24;100138.97;;;32.65;100.00
21956;BME280;11142;49.930;8.606;2023-08-12T15:47:00;100140.03;;;32.63;100.00
21956;BME280;11142;49.930;8.606;2023-08-12T15:49:31;100140.84;;;31.54;100.00
21956;BME280;11142;49.930;8.606;2023-08-12T15:52:19;100127.81;;;30.87;100.00
21956;BME280;11142;49.930;8.606;2023-08-12T15:54:48;100128.06;;;30.67;100.00
21956;BME280;11142;49.930;8.606;2023-08-12T15:57:21;100136.34;;;30.29;100.00
21956;BME280;11142;49.930;8.606;2023-08-12T15:59:59;100127.28;;;30.30;100.00
21956;BME280;11142;49.930;8.606;2023-08-12T16:02:33;100129.72;;;30.32;100.00
21956;BME280;11142;49.930;8.606;2023-08-12T16:05:18;100138.25;;;30.47;100.00
21956;BME280;11142;49.930;8.606;2023-08-12T16:08:04;100138.44;;;30.93;100.00
21956;BME280;11142;49.930;8.606;2023-08-12T16:11:39;100127.16;;;30.73;100.00
21956;BME280;11142;49.930;8.606;2023-08-12T16:14:34;100132.47;;;30.62;100.00
21956;BME280;11142;49.930;8.606;2023-08-12T16:18:19;100131.38;;;29.96;100.00
21956;BME280;11142;49.930;8.606;2023-08-12T16:21:49;100138.81;;;29.70;100.00
21956;BME280;11142;49.930;8.606;2023-08-12T16:24:46;100128.31;;;29.93;100.00
21956;BME280;11142;49.930;8.606;2023-08-12T16:28:20;100135.19;;;30.43;100.00
21956;BME280;11142;49.930;8.606;2023-08-12T16:56:20;100132.97;;;29.55;100.00
21956;BME280;11142;49.930;8.606;2023-08-12T16:59:48;100133.91;;;29.67;100.00
21956;BME280;11142;49.930;8.606;2023-08-12T17:02:58;100136.16;;;30.13;100.00
21956;BME280;11142;49.930;8.606;2023-08-12T17:06:05;100136.19;;;29.88;100.00
21956;BME280;11142;49.930;8.606;2023-08-12T17:08:54;100136.03;;;29.33;100.00
21956;BME280;11142;49.930;8.606;2023-08-12T17:11:27;100143.44;;;29.31;100.00
21956;BME280;11142;49.930;8.606;2023-08-12T17:14:27;100135.22;;;29.02;100.00
21956;BME280;11142;49.930;8.606;2023-08-12T17:17:02;100137.38;;;28.80;100.00
21956;BME280;11142;49.930;8.606;2023-08-12T17:19:44;100124.69;;;28.75;100.00
21956;BME280;11142;49.930;8.606;2023-08-12T17:22:28;100127.97;;;28.71;100.00
21956;BME280;11142;49.930;8.606;2023-08-12T17:25:17;100128.56;;;28.79;100.00
21956;BME280;11142;49.930;8.606;2023-08-12T17:28:21;100123.00;;;28.81;100.00
21956;BME280;11142;49.930;8.606;2023-08-12T17:31:17;100124.69;;;29.38;100.00
21956;BME280;11142;49.930;8.606;2023-08-12T17:34:14;100131.91;;;29.87;100.00
21956;BME280;11142;49.930;8.606;2023-08-12T17:37:21;100126.69;;;30.10;100.00
21956;BME280;11142;49.930;8.606;2023-08-12T17:40:32;100132.00;;;29.49;100.00
21956;BME280;11142;49.930;8.606;2023-08-12T17:47:06;100118.34;;;27.92;100.00
21956;BME280;11142;49.930;8.606;2023-08-12T17:50:26;100120.44;;;27.84;100.00
21956;BME280;11142;49.930;8.606;2023-08-12T17:53:20;100127.06;;;28.39;100.00
21956;BME280;11142;49.930;8.606;2023-08-12T17:56:32;100130.00;;;28.24;100.00
21956;BME280;11142;49.930;8.606;2023-08-12T17:59:17;100137.88;;;28.06;100.00
21956;BME280;11142;49.930;8.606;2023-08-12T18:09:32;100150.19;;;28.58;100.00
21956;BME280;11142;49.930;8.606;2023-08-12T18:12:30;100159.72;;;28.41;100.00
21956;BME280;11142;49.930;8.606;2023-08-12T18:15:28;100162.53;;;28.66;100.00
21956;BME280;11142;49.930;8.606;2023-08-12T18:18:48;100165.59;;;28.63;100.00
21956;BME280;11142;49.930;8.606;2023-08-12T18:21:25;100171.47;;;28.27;100.00
21956;BME280;11142;49.930;8.606;2023-08-12T18:24:37;100171.28;;;28.02;100.00
21956;BME280;11142;49.930;8.606;2023-08-12T18:27:52;100172.38;;;27.62;100.00
21956;BME280;11142;49.930;8.606;2023-08-12T18:30:51;100167.16;;;27.34;100.00
21956;BME280;11142;49.930;8.606;2023-08-12T18:33:36;100174.69;;;26.91;100.00
21956;BME280;11142;49.930;8.606;2023-08-12T18:36:09;100164.78;;;26.78;100.00
21956;BME280;11142;49.930;8.606;2023-08-12T18:38:57;100176.06;;;26.80;100.00
21956;BME280;11142;49.930;8.606;2023-08-12T18:41:33;100169.88;;;26.80;100.00
21956;BME280;11142;49.930;8.606;2023-08-12T18:44:26;100179.88;;;26.65;100.00
21956;BME280;11142;49.930;8.606;2023-08-12T18:47:12;100188.72;;;26.31;100.00
21956;BME280;11142;49.930;8.606;2023-08-12T18:50:03;100182.88;;;25.86;100.00
21956;BME280;11142;49.930;8.606;2023-08-12T18:52:54;100177.22;;;25.68;100.00
21956;BME280;11142;49.930;8.606;2023-08-12T18:55:52;100174.09;;;25.44;100.00
21956;BME280;11142;49.930;8.606;2023-08-12T19:14:28;100187.44;;;24.43;100.00
21956;BME280;11142;49.930;8.606;2023-08-12T19:16:56;100185.31;;;24.23;100.00
21956;BME280;11142;49.930;8.606;2023-08-12T19:19:25;100189.16;;;24.06;100.00
21956;BME280;11142;49.930;8.606;2023-08-12T19:21:53;100186.03;;;24.03;100.00
21956;BME280;11142;49.930;8.606;2023-08-12T19:24:21;100197.41;;;24.11;100.00
21956;BME280;11142;49.930;8.606;2023-08-12T19:26:49;100202.03;;;24.09;100.00
21956;BME280;11142;49.930;8.606;2023-08-12T19:29:16;100188.84;;;24.01;100.00
21956;BME280;11142;49.930;8.606;2023-08-12T19:31:46;100205.63;;;23.79;100.00
21956;BME280;11142;49.930;8.606;2023-08-12T19:34:13;100202.56;;;23.53;100.00
21956;BME280;11142;49.930;8.606;2023-08-12T19:36:41;100205.09;;;23.46;100.00
21956;BME280;11142;49.930;8.606;2023-08-12T19:39:09;100210.66;;;23.51;100.00
21956;BME280;11142;49.930;8.606;2023-08-12T19:41:38;100209.97;;;23.57;100.00
21956;BME280;11142;49.930;8.606;2023-08-12T19:44:06;100202.00;;;23.57;100.00
21956;BME280;11142;49.930;8.606;2023-08-12T19:46:34;100205.84;;;23.55;100.00
21956;BME280;11142;49.930;8.606;2023-08-12T19:49:03;100209.59;;;23.60;100.00
21956;BME280;11142;49.930;8.606;2023-08-12T19:51:31;100205.88;;;23.47;100.00
21956;BME280;11142;49.930;8.606;2023-08-12T19:53:59;100212.13;;;23.54;100.00
21956;BME280;11142;49.930;8.606;2023-08-12T19:56:27;100220.88;;;23.62;100.00
21956;BME280;11142;49.930;8.606;2023-08-12T19:58:55;100222.13;;;23.44;100.00
21956;BME280;11142;49.930;8.606;2023-08-12T20:01:22;100226.53;;;23.28;100.00
21956;BME280;11142;49.930;8.606;2023-08-12T20:03:50;100222.69;;;23.08;100.00
21956;BME280;11142;49.930;8.606;2023-08-12T20:06:21;100221.41;;;22.96;100.00
21956;BME280;11142;49.930;8.606;2023-08-12T20:08:49;100220.97;;;22.85;100.00
21956;BME280;11142;49.930;8.606;2023-08-12T20:11:17;100209.16;;;22.56;100.00
21956;BME280;11142;49.930;8.606;2023-08-12T20:13:45;100211.50;;;22.51;100.00
21956;BME280;11142;49.930;8.606;2023-08-12T20:16:14;100210.50;;;22.52;100.00
21956;BME280;11142;49.930;8.606;2023-08-12T20:18:42;100216.59;;;22.53;100.00
21956;BME280;11142;49.930;8.606;2023-08-12T20:21:10;100219.56;;;22.66;100.00
21956;BME280;11142;49.930;8.606;2023-08-12T20:23:39;100206.63;;;22.71;100.00
21956;BME280;11142;49.930;8.606;2023-08-12T20:26:07;100216.69;;;22.84;100.00
21956;BME280;11142;49.930;8.606;2023-08-12T20:28:36;100225.72;;;22.97;100.00
21956;BME280;11142;49.930;8.606;2023-08-12T20:31:04;100228.22;;;22.91;100.00
21956;BME280;11142;49.930;8.606;2023-08-12T20:33:32;100232.69;;;22.90;100.00
21956;BME280;11142;49.930;8.606;2023-08-12T20:36:00;100241.19;;;22.77;100.00
21956;BME280;11142;49.930;8.606;2023-08-12T20:38:27;100238.41;;;22.63;100.00
21956;BME280;11142;49.930;8.606;2023-08-12T20:40:57;100236.16;;;22.44;100.00
21956;BME280;11142;49.930;8.606;2023-08-12T20:43:25;100235.16;;;22.37;100.00
21956;BME280;11142;49.930;8.606;2023-08-12T20:45:52;100235.66;;;22.40;100.00
21956;BME280;11142;49.930;8.606;2023-08-12T20:48:21;100235.66;;;22.48;100.00
21956;BME280;11142;49.930;8.606;2023-08-12T20:50:50;100245.22;;;22.65;100.00
21956;BME280;11142;49.930;8.606;2023-08-12T20:53:20;100253.59;;;22.77;100.00
21956;BME280;11142;49.930;8.606;2023-08-12T20:55:50;100242.53;;;22.73;100.00
21956;BME280;11142;49.930;8.606;2023-08-12T20:58:22;100245.53;;;22.70;100.00
21956;BME280;11142;49.930;8.606;2023-08-12T21:00:50;100241.38;;;22.68;100.00
21956;BME280;11142;49.930;8.606;2023-08-12T21:03:18;100239.56;;;22.68;100.00
21956;BME280;11142;49.930;8.606;2023-08-12T21:05:48;100244.88;;;22.68;100.00
21956;BME280;11142;49.930;8.606;2023-08-12T21:23:17;100244.44;;;22.41;100.00
21956;BME280;11142;49.930;8.606;2023-08-12T21:25:47;100254.16;;;22.48;100.00
21956;BME280;11142;49.930;8.606;2023-08-12T21:28:15;100258.09;;;22.52;100.00
21956;BME280;11142;49.930;8.606;2023-08-12T21:30:43;100251.19;;;22.43;100.00
21956;BME280;11142;49.930;8.606;2023-08-12T21:33:10;100248.72;;;22.42;100.00
21956;BME280;11142;49.930;8.606;2023-08-12T21:35:38;100261.63;;;22.45;100.00
21956;BME280;11142;49.930;8.606;2023-08-12T21:38:07;100260.94;;;22.51;100.00
21956;BME280;11142;49.930;8.606;2023-08-12T21:40:37;100258.28;;;22.43;100.00
21956;BME280;11142;49.930;8.606;2023-08-12T21:43:04;100255.16;;;22.39;100.00
21956;BME280;11142;49.930;8.606;2023-08-12T21:45:32;100259.66;;;22.39;100.00
21956;BME280;11142;49.930;8.606;2023-08-12T21:48:00;100261.31;;;22.32;100.00
21956;BME280;11142;49.930;8.606;2023-08-12T21:50:28;100263.31;;;22.21;100.00
21956;BME280;11142;49.930;8.606;2023-08-12T21:52:57;100267.59;;;22.22;100.00
21956;BME280;11142;49.930;8.606;2023-08-12T21:55:24;100266.09;;;22.28;100.00
21956;BME280;11142;49.930;8.606;2023-08-12T21:57:53;100266.75;;;22.30;100.00
21956;BME280;11142;49.930;8.606;2023-08-12T22:00:22;100255.19;;;22.31;100.00
21956;BME280;11142;49.930;8.606;2023-08-12T22:02:50;100258.19;;;22.28;100.00
21956;BME280;11142;49.930;8.606;2023-08-12T22:05:18;100252.53;;;22.23;100.00
21956;BME280;11142;49.930;8.606;2023-08-12T22:07:45;100247.44;;;22.21;100.00
21956;BME280;11142;49.930;8.606;2023-08-12T22:10:13;100246.94;;;22.26;100.00
21956;BME280;11142;49.930;8.606;2023-08-12T22:12:41;100239.81;;;22.27;100.00
21956;BME280;11142;49.930;8.606;2023-08-12T22:15:10;100238.19;;;22.26;100.00
21956;BME280;11142;49.930;8.606;2023-08-12T22:17:38;100234.88;;;22.23;100.00
21956;BME280;11142;49.930;8.606;2023-08-12T22:20:08;100242.81;;;22.15;100.00
21956;BME280;11142;49.930;8.606;2023-08-12T22:22:36;100237.38;;;22.01;100.00
21956;BME280;11142;49.930;8.606;2023-08-12T22:25:05;100247.81;;;21.94;100.00
21956;BME280;11142;49.930;8.606;2023-08-12T22:27:33;100242.88;;;21.91;100.00
21956;BME280;11142;49.930;8.606;2023-08-12T22:30:01;100256.22;;;21.82;100.00
21956;BME280;11142;49.930;8.606;2023-08-12T22:32:33;100257.00;;;21.82;100.00
21956;BME280;11142;49.930;8.606;2023-08-12T22:35:01;100257.00;;;21.66;100.00
21956;BME280;11142;49.930;8.606;2023-08-12T22:37:29;100255.84;;;21.52;100.00
21956;BME280;11142;49.930;8.606;2023-08-12T22:39:56;100253.53;;;21.57;100.00
21956;BME280;11142;49.930;8.606;2023-08-12T22:42:25;100254.53;;;21.64;100.00
21956;BME280;11142;49.930;8.606;2023-08-12T22:44:53;100245.78;;;21.80;100.00
21956;BME280;11142;49.930;8.606;2023-08-12T22:47:21;100250.59;;;22.01;100.00
21956;BME280;11142;49.930;8.606;2023-08-12T22:49:50;100250.25;;;22.20;100.00
21956;BME280;11142;49.930;8.606;2023-08-12T22:52:18;100252.41;;;22.24;100.00
21956;BME280;11142;49.930;8.606;2023-08-12T22:54:46;100251.75;;;22.22;100.00
21956;BME280;11142;49.930;8.606;2023-08-12T22:57:14;100253.41;;;22.15;100.00
21956;BME280;11142;49.930;8.606;2023-08-12T22:59:42;100260.00;;;22.19;100.00
21956;BME280;11142;49.930;8.606;2023-08-12T23:02:10;100245.78;;;22.29;100.00
21956;BME280;11142;49.930;8.606;2023-08-12T23:04:38;100252.69;;;22.38;100.00
21956;BME280;11142;49.930;8.606;2023-08-12T23:07:07;100259.66;;;22.31;100.00
21956;BME280;11142;49.930;8.606;2023-08-12T23:09:38;100248.59;;;22.35;100.00
21956;BME280;11142;49.930;8.606;2023-08-12T23:12:06;100249.34;;;22.52;100.00
21956;BME280;11142;49.930;8.606;2023-08-12T23:14:34;100252.66;;;22.46;100.00
21956;BME280;11142;49.930;8.606;2023-08-12T23:17:02;100240.94;;;22.40;100.00
21956;BME280;11142;49.930;8.606;2023-08-12T23:19:30;100235.31;;;22.43;100.00
21956;BME280;11142;49.930;8.606;2023-08-12T23:21:58;100230.53;;;22.47;100.00
21956;BME280;11142;49.930;8.606;2023-08-12T23:24:28;100235.84;;;22.39;100.00
21956;BME280;11142;49.930;8.606;2023-08-12T23:26:56;100237.50;;;22.23;100.00
21956;BME280;11142;49.930;8.606;2023-08-12T23:29:25;100233.25;;;22.06;100.00
21956;BME280;11142;49.930;8.606;2023-08-12T23:31:53;100236.56;;;22.00;100.00
21956;BME280;11142;49.930;8.606;2023-08-12T23:54:06;100230.91;;;21.55;100.00
21956;BME280;11142;49.930;8.606;2023-08-12T23:56:35;100233.06;;;21.51;100.00
21956;BME280;11142;49.930;8.606;2023-08-12T23:59:04;100227.94;;;21.34;100.00
